sensor_id;sensor_type;location;lat;lon;timestamp;P1;durP1;ratioP1;P2;durP2;ratioP2
18140;SDS011;9196;49.194;12.526;2023-02-10T00:00:19;24.75;;;16.55;;
18140;SDS011;9196;49.194;12.526;2023-02-10T00:02:48;31.15;;;18.23;;
18140;SDS011;9196;49.194;12.526;2023-02-10T00:05:14;26.45;;;17.63;;
18140;SDS011;9196;49.194;12.526;2023-02-10T00:07:41;31.17;;;18.75;;
18140;SDS011;9196;49.194;12.526;2023-02-10T00:10:08;26.33;;;16.77;;
18140;SDS011;9196;49.194;12.526;2023-02-10T00:12:35;30.27;;;19.00;;
18140;SDS011;9196;49.194;12.526;2023-02-10T00:15:02;32.17;;;17.98;;
18140;SDS011;9196;49.194;12.526;2023-02-10T00:17:30;31.30;;;17.13;;
18140;SDS011;9196;49.194;12.526;2023-02-10T00:19:58;23.83;;;17.10;;
18140;SDS011;9196;49.194;12.526;2023-02-10T00:22:25;27.70;;;17.55;;
18140;SDS011;9196;49.194;12.526;2023-02-10T00:24:52;37.58;;;18.35;;
18140;SDS011;9196;49.194;12.526;2023-02-10T00:27:19;31.42;;;17.30;;
18140;SDS011;9196;49.194;12.526;2023-02-10T00:29:49;28.02;;;17.63;;
18140;SDS011;9196;49.194;12.526;2023-02-10T00:32:16;30.48;;;17.13;;
18140;SDS011;9196;49.194;12.526;2023-02-10T00:34:43;27.17;;;17.73;;
18140;SDS011;9196;49.194;12.526;2023-02-10T00:37:11;31.10;;;17.83;;
18140;SDS011;9196;49.194;12.526;2023-02-10T00:39:38;26.63;;;17.65;;
18140;SDS011;9196;49.194;12.526;2023-02-10T00:42:05;28.02;;;18.23;;
18140;SDS011;9196;49.194;12.526;2023-02-10T00:44:32;30.17;;;18.55;;
18140;SDS011;9196;49.194;12.526;2023-02-10T00:46:59;33.40;;;19.25;;
18140;SDS011;9196;49.194;12.526;2023-02-10T00:49:25;32.05;;;18.88;;
18140;SDS011;9196;49.194;12.526;2023-02-10T00:51:52;29.35;;;18.30;;
18140;SDS011;9196;49.194;12.526;2023-02-10T00:54:20;30.92;;;18.27;;
18140;SDS011;9196;49.194;12.526;2023-02-10T00:56:47;27.90;;;18.77;;
18140;SDS011;9196;49.194;12.526;2023-02-10T00:59:14;32.75;;;19.10;;
18140;SDS011;9196;49.194;12.526;2023-02-10T01:01:41;32.72;;;18.50;;
18140;SDS011;9196;49.194;12.526;2023-02-10T01:04:08;29.00;;;17.55;;
18140;SDS011;9196;49.194;12.526;2023-02-10T01:06:35;33.72;;;19.48;;
18140;SDS011;9196;49.194;12.526;2023-02-10T01:09:02;30.10;;;19.27;;
18140;SDS011;9196;49.194;12.526;2023-02-10T01:11:30;33.05;;;20.50;;
18140;SDS011;9196;49.194;12.526;2023-02-10T01:13:57;39.28;;;20.27;;
18140;SDS011;9196;49.194;12.526;2023-02-10T01:16:24;33.28;;;18.58;;
18140;SDS011;9196;49.194;12.526;2023-02-10T01:18:51;36.45;;;20.65;;
18140;SDS011;9196;49.194;12.526;2023-02-10T01:21:19;29.27;;;19.30;;
18140;SDS011;9196;49.194;12.526;2023-02-10T01:23:47;36.75;;;19.95;;
18140;SDS011;9196;49.194;12.526;2023-02-10T01:26:14;30.08;;;17.92;;
18140;SDS011;9196;49.194;12.526;2023-02-10T01:28:43;27.52;;;18.08;;
18140;SDS011;9196;49.194;12.526;2023-02-10T01:31:11;29.05;;;18.20;;
18140;SDS011;9196;49.194;12.526;2023-02-10T01:33:39;28.77;;;18.65;;
18140;SDS011;9196;49.194;12.526;2023-02-10T01:36:07;27.92;;;18.67;;
18140;SDS011;9196;49.194;12.526;2023-02-10T01:38:36;31.98;;;18.20;;
18140;SDS011;9196;49.194;12.526;2023-02-10T01:41:03;32.15;;;19.15;;
18140;SDS011;9196;49.194;12.526;2023-02-10T01:43:31;30.13;;;18.38;;
18140;SDS011;9196;49.194;12.526;2023-02-10T01:45:59;33.95;;;18.73;;
18140;SDS011;9196;49.194;12.526;2023-02-10T01:48:26;36.08;;;19.85;;
18140;SDS011;9196;49.194;12.526;2023-02-10T01:50:55;26.77;;;17.52;;
18140;SDS011;9196;49.194;12.526;2023-02-10T01:53:26;31.13;;;19.52;;
18140;SDS011;9196;49.194;12.526;2023-02-10T01:55:54;26.13;;;18.42;;
18140;SDS011;9196;49.194;12.526;2023-02-10T01:58:23;28.30;;;18.13;;
18140;SDS011;9196;49.194;12.526;2023-02-10T02:00:52;31.35;;;19.23;;
18140;SDS011;9196;49.194;12.526;2023-02-10T02:03:20;30.83;;;20.05;;
18140;SDS011;9196;49.194;12.526;2023-02-10T02:05:47;29.70;;;18.38;;
18140;SDS011;9196;49.194;12.526;2023-02-10T02:08:15;26.65;;;17.95;;
18140;SDS011;9196;49.194;12.526;2023-02-10T02:10:51;30.75;;;19.13;;
18140;SDS011;9196;49.194;12.526;2023-02-10T02:16:42;30.00;;;17.98;;
18140;SDS011;9196;49.194;12.526;2023-02-10T02:19:31;25.15;;;15.05;;
18140;SDS011;9196;49.194;12.526;2023-02-10T02:22:26;27.02;;;16.75;;
18140;SDS011;9196;49.194;12.526;2023-02-10T02:25:15;31.33;;;17.90;;
18140;SDS011;9196;49.194;12.526;2023-02-10T02:28:01;27.20;;;16.98;;
18140;SDS011;9196;49.194;12.526;2023-02-10T02:33:45;43.20;;;21.70;;
18140;SDS011;9196;49.194;12.526;2023-02-10T02:36:16;37.20;;;20.40;;
18140;SDS011;9196;49.194;12.526;2023-02-10T02:38:46;33.03;;;19.95;;
18140;SDS011;9196;49.194;12.526;2023-02-10T02:41:21;40.85;;;20.95;;
18140;SDS011;9196;49.194;12.526;2023-02-10T02:43:48;31.20;;;19.17;;
18140;SDS011;9196;49.194;12.526;2023-02-10T02:46:17;28.92;;;18.50;;
18140;SDS011;9196;49.194;12.526;2023-02-10T02:48:56;27.45;;;16.95;;
18140;SDS011;9196;49.194;12.526;2023-02-10T02:51:31;28.38;;;17.13;;
18140;SDS011;9196;49.194;12.526;2023-02-10T02:54:10;30.17;;;18.73;;
18140;SDS011;9196;49.194;12.526;2023-02-10T02:56:42;23.65;;;15.30;;
18140;SDS011;9196;49.194;12.526;2023-02-10T02:59:14;20.00;;;12.32;;
18140;SDS011;9196;49.194;12.526;2023-02-10T03:01:47;19.58;;;12.10;;
18140;SDS011;9196;49.194;12.526;2023-02-10T03:04:20;20.70;;;12.38;;
18140;SDS011;9196;49.194;12.526;2023-02-10T03:06:47;19.83;;;12.55;;
18140;SDS011;9196;49.194;12.526;2023-02-10T03:09:15;20.05;;;13.30;;
18140;SDS011;9196;49.194;12.526;2023-02-10T03:11:42;20.80;;;14.30;;
18140;SDS011;9196;49.194;12.526;2023-02-10T03:14:09;22.60;;;13.75;;
18140;SDS011;9196;49.194;12.526;2023-02-10T03:16:36;27.08;;;15.75;;
18140;SDS011;9196;49.194;12.526;2023-02-10T03:19:02;24.23;;;15.88;;
18140;SDS011;9196;49.194;12.526;2023-02-10T03:21:31;24.58;;;16.27;;
18140;SDS011;9196;49.194;12.526;2023-02-10T03:23:58;24.88;;;15.20;;
18140;SDS011;9196;49.194;12.526;2023-02-10T03:26:26;22.25;;;15.07;;
18140;SDS011;9196;49.194;12.526;2023-02-10T03:28:53;24.17;;;15.45;;
18140;SDS011;9196;49.194;12.526;2023-02-10T03:31:19;28.08;;;15.75;;
18140;SDS011;9196;49.194;12.526;2023-02-10T03:33:46;25.95;;;17.08;;
18140;SDS011;9196;49.194;12.526;2023-02-10T03:36:13;24.83;;;15.40;;
18140;SDS011;9196;49.194;12.526;2023-02-10T03:38:41;25.02;;;16.17;;
18140;SDS011;9196;49.194;12.526;2023-02-10T03:41:08;26.05;;;16.95;;
18140;SDS011;9196;49.194;12.526;2023-02-10T03:43:35;27.73;;;17.05;;
18140;SDS011;9196;49.194;12.526;2023-02-10T03:46:02;27.17;;;16.70;;
18140;SDS011;9196;49.194;12.526;2023-02-10T03:48:30;26.10;;;15.82;;
18140;SDS011;9196;49.194;12.526;2023-02-10T03:50:57;24.98;;;16.38;;
18140;SDS011;9196;49.194;12.526;2023-02-10T03:53:24;25.38;;;16.70;;
18140;SDS011;9196;49.194;12.526;2023-02-10T03:55:53;25.30;;;15.20;;
18140;SDS011;9196;49.194;12.526;2023-02-10T03:58:20;26.80;;;16.75;;
18140;SDS011;9196;49.194;12.526;2023-02-10T04:00:47;23.92;;;15.68;;
18140;SDS011;9196;49.194;12.526;2023-02-10T04:03:14;25.25;;;15.85;;
18140;SDS011;9196;49.194;12.526;2023-02-10T04:05:41;28.17;;;15.13;;
18140;SDS011;9196;49.194;12.526;2023-02-10T04:08:08;27.95;;;14.82;;
18140;SDS011;9196;49.194;12.526;2023-02-10T04:10:35;22.17;;;14.65;;
18140;SDS011;9196;49.194;12.526;2023-02-10T04:13:03;27.60;;;14.90;;
18140;SDS011;9196;49.194;12.526;2023-02-10T04:15:30;27.70;;;15.75;;
18140;SDS011;9196;49.194;12.526;2023-02-10T04:17:57;24.63;;;15.02;;
18140;SDS011;9196;49.194;12.526;2023-02-10T04:20:24;24.00;;;14.30;;
18140;SDS011;9196;49.194;12.526;2023-02-10T04:22:51;20.08;;;13.95;;
18140;SDS011;9196;49.194;12.526;2023-02-10T04:25:19;23.15;;;13.77;;
18140;SDS011;9196;49.194;12.526;2023-02-10T04:27:46;23.30;;;15.07;;
18140;SDS011;9196;49.194;12.526;2023-02-10T04:30:14;21.48;;;14.45;;
18140;SDS011;9196;49.194;12.526;2023-02-10T04:32:41;19.10;;;13.48;;
18140;SDS011;9196;49.194;12.526;2023-02-10T04:35:07;24.55;;;15.15;;
18140;SDS011;9196;49.194;12.526;2023-02-10T04:37:34;35.67;;;20.55;;
18140;SDS011;9196;49.194;12.526;2023-02-10T04:40:01;37.95;;;19.88;;
18140;SDS011;9196;49.194;12.526;2023-02-10T04:42:28;29.27;;;18.10;;
18140;SDS011;9196;49.194;12.526;2023-02-10T04:44:56;35.08;;;20.77;;
18140;SDS011;9196;49.194;12.526;2023-02-10T04:47:24;33.30;;;20.45;;
18140;SDS011;9196;49.194;12.526;2023-02-10T04:49:52;35.20;;;19.67;;
18140;SDS011;9196;49.194;12.526;2023-02-10T04:52:19;31.80;;;20.55;;
18140;SDS011;9196;49.194;12.526;2023-02-10T04:54:46;30.98;;;20.20;;
18140;SDS011;9196;49.194;12.526;2023-02-10T04:57:13;36.03;;;20.27;;
18140;SDS011;9196;49.194;12.526;2023-02-10T04:59:40;38.33;;;21.15;;
18140;SDS011;9196;49.194;12.526;2023-02-10T05:02:07;31.80;;;20.08;;
18140;SDS011;9196;49.194;12.526;2023-02-10T05:04:35;31.70;;;19.70;;
18140;SDS011;9196;49.194;12.526;2023-02-10T05:07:02;40.30;;;19.27;;
18140;SDS011;9196;49.194;12.526;2023-02-10T05:09:29;29.15;;;18.17;;
18140;SDS011;9196;49.194;12.526;2023-02-10T05:11:55;27.13;;;17.23;;
18140;SDS011;9196;49.194;12.526;2023-02-10T05:14:22;28.85;;;17.02;;
18140;SDS011;9196;49.194;12.526;2023-02-10T05:16:49;25.27;;;15.43;;
18140;SDS011;9196;49.194;12.526;2023-02-10T05:19:16;21.20;;;14.52;;
18140;SDS011;9196;49.194;12.526;2023-02-10T05:21:44;20.20;;;14.15;;
18140;SDS011;9196;49.194;12.526;2023-02-10T05:24:11;24.45;;;14.60;;
18140;SDS011;9196;49.194;12.526;2023-02-10T05:26:37;21.83;;;14.00;;
18140;SDS011;9196;49.194;12.526;2023-02-10T05:29:05;19.60;;;13.38;;
18140;SDS011;9196;49.194;12.526;2023-02-10T05:31:31;22.23;;;13.55;;
18140;SDS011;9196;49.194;12.526;2023-02-10T05:33:58;23.77;;;16.38;;
18140;SDS011;9196;49.194;12.526;2023-02-10T05:36:25;20.48;;;14.25;;
18140;SDS011;9196;49.194;12.526;2023-02-10T05:38:53;24.02;;;14.70;;
18140;SDS011;9196;49.194;12.526;2023-02-10T05:41:37;25.90;;;16.17;;
18140;SDS011;9196;49.194;12.526;2023-02-10T05:44:04;25.25;;;16.10;;
18140;SDS011;9196;49.194;12.526;2023-02-10T05:46:31;26.40;;;15.45;;
18140;SDS011;9196;49.194;12.526;2023-02-10T05:48:58;21.55;;;15.07;;
18140;SDS011;9196;49.194;12.526;2023-02-10T05:51:25;31.80;;;17.27;;
18140;SDS011;9196;49.194;12.526;2023-02-10T05:53:54;32.15;;;17.17;;
18140;SDS011;9196;49.194;12.526;2023-02-10T05:56:20;40.47;;;17.20;;
18140;SDS011;9196;49.194;12.526;2023-02-10T05:58:47;22.45;;;14.63;;
18140;SDS011;9196;49.194;12.526;2023-02-10T06:01:14;26.35;;;17.60;;
18140;SDS011;9196;49.194;12.526;2023-02-10T06:03:41;25.42;;;17.40;;
18140;SDS011;9196;49.194;12.526;2023-02-10T06:06:08;32.33;;;19.38;;
18140;SDS011;9196;49.194;12.526;2023-02-10T06:08:35;30.48;;;18.13;;
18140;SDS011;9196;49.194;12.526;2023-02-10T06:11:03;27.65;;;17.02;;
18140;SDS011;9196;49.194;12.526;2023-02-10T06:13:30;41.85;;;20.02;;
18140;SDS011;9196;49.194;12.526;2023-02-10T06:15:57;33.92;;;21.30;;
18140;SDS011;9196;49.194;12.526;2023-02-10T06:18:26;33.17;;;19.48;;
18140;SDS011;9196;49.194;12.526;2023-02-10T06:20:53;28.20;;;16.50;;
18140;SDS011;9196;49.194;12.526;2023-02-10T06:23:20;28.52;;;18.33;;
18140;SDS011;9196;49.194;12.526;2023-02-10T06:25:46;29.85;;;18.67;;
18140;SDS011;9196;49.194;12.526;2023-02-10T06:28:14;35.53;;;20.63;;
18140;SDS011;9196;49.194;12.526;2023-02-10T06:30:41;32.58;;;19.88;;
18140;SDS011;9196;49.194;12.526;2023-02-10T06:33:08;35.22;;;20.20;;
18140;SDS011;9196;49.194;12.526;2023-02-10T06:35:35;36.83;;;21.15;;
18140;SDS011;9196;49.194;12.526;2023-02-10T06:38:02;34.35;;;19.90;;
18140;SDS011;9196;49.194;12.526;2023-02-10T06:40:29;36.08;;;21.08;;
18140;SDS011;9196;49.194;12.526;2023-02-10T06:42:55;35.08;;;20.75;;
18140;SDS011;9196;49.194;12.526;2023-02-10T06:45:23;34.67;;;18.95;;
18140;SDS011;9196;49.194;12.526;2023-02-10T06:47:50;42.90;;;22.98;;
18140;SDS011;9196;49.194;12.526;2023-02-10T06:50:17;37.45;;;23.08;;
18140;SDS011;9196;49.194;12.526;2023-02-10T06:52:44;40.78;;;24.77;;
18140;SDS011;9196;49.194;12.526;2023-02-10T06:55:12;44.88;;;23.30;;
18140;SDS011;9196;49.194;12.526;2023-02-10T06:57:39;47.95;;;23.05;;
18140;SDS011;9196;49.194;12.526;2023-02-10T07:00:06;34.70;;;21.65;;
18140;SDS011;9196;49.194;12.526;2023-02-10T07:02:37;28.30;;;17.67;;
18140;SDS011;9196;49.194;12.526;2023-02-10T07:05:05;27.35;;;17.95;;
18140;SDS011;9196;49.194;12.526;2023-02-10T07:07:32;33.80;;;17.83;;
18140;SDS011;9196;49.194;12.526;2023-02-10T07:10:00;32.83;;;17.98;;
18140;SDS011;9196;49.194;12.526;2023-02-10T07:12:27;37.92;;;17.88;;
18140;SDS011;9196;49.194;12.526;2023-02-10T07:14:54;28.27;;;17.80;;
18140;SDS011;9196;49.194;12.526;2023-02-10T07:17:21;31.70;;;17.65;;
18140;SDS011;9196;49.194;12.526;2023-02-10T07:19:49;28.85;;;16.67;;
18140;SDS011;9196;49.194;12.526;2023-02-10T07:22:15;36.03;;;20.35;;
18140;SDS011;9196;49.194;12.526;2023-02-10T07:24:42;54.60;;;24.48;;
18140;SDS011;9196;49.194;12.526;2023-02-10T07:27:09;49.17;;;23.63;;
18140;SDS011;9196;49.194;12.526;2023-02-10T07:29:36;42.15;;;22.88;;
18140;SDS011;9196;49.194;12.526;2023-02-10T07:32:03;39.95;;;23.35;;
18140;SDS011;9196;49.194;12.526;2023-02-10T07:34:30;35.03;;;21.20;;
18140;SDS011;9196;49.194;12.526;2023-02-10T07:37:00;36.28;;;20.63;;
18140;SDS011;9196;49.194;12.526;2023-02-10T07:39:27;32.47;;;19.65;;
18140;SDS011;9196;49.194;12.526;2023-02-10T07:41:54;30.42;;;19.23;;
18140;SDS011;9196;49.194;12.526;2023-02-10T07:44:21;41.05;;;19.60;;
18140;SDS011;9196;49.194;12.526;2023-02-10T07:46:47;32.00;;;18.85;;
18140;SDS011;9196;49.194;12.526;2023-02-10T07:49:16;33.00;;;20.83;;
18140;SDS011;9196;49.194;12.526;2023-02-10T07:51:43;34.88;;;22.50;;
18140;SDS011;9196;49.194;12.526;2023-02-10T07:54:11;40.90;;;22.13;;
18140;SDS011;9196;49.194;12.526;2023-02-10T07:56:38;36.35;;;21.33;;
18140;SDS011;9196;49.194;12.526;2023-02-10T07:59:05;37.95;;;23.40;;
18140;SDS011;9196;49.194;12.526;2023-02-10T08:01:31;36.45;;;22.80;;
18140;SDS011;9196;49.194;12.526;2023-02-10T08:04:01;36.67;;;21.08;;
18140;SDS011;9196;49.194;12.526;2023-02-10T08:06:28;40.05;;;23.95;;
18140;SDS011;9196;49.194;12.526;2023-02-10T08:08:55;41.17;;;22.73;;
18140;SDS011;9196;49.194;12.526;2023-02-10T08:11:23;39.45;;;23.48;;
18140;SDS011;9196;49.194;12.526;2023-02-10T08:13:50;38.92;;;23.40;;
18140;SDS011;9196;49.194;12.526;2023-02-10T08:16:17;38.78;;;24.38;;
18140;SDS011;9196;49.194;12.526;2023-02-10T08:18:43;40.78;;;24.77;;
18140;SDS011;9196;49.194;12.526;2023-02-10T08:21:10;43.72;;;24.10;;
18140;SDS011;9196;49.194;12.526;2023-02-10T08:23:37;43.65;;;25.70;;
18140;SDS011;9196;49.194;12.526;2023-02-10T08:26:04;49.47;;;24.95;;
18140;SDS011;9196;49.194;12.526;2023-02-10T08:28:34;47.78;;;27.92;;
18140;SDS011;9196;49.194;12.526;2023-02-10T08:31:02;42.70;;;27.30;;
18140;SDS011;9196;49.194;12.526;2023-02-10T08:33:33;50.95;;;30.23;;
18140;SDS011;9196;49.194;12.526;2023-02-10T08:36:03;49.33;;;29.30;;
18140;SDS011;9196;49.194;12.526;2023-02-10T08:38:30;45.08;;;29.63;;
18140;SDS011;9196;49.194;12.526;2023-02-10T08:40:57;50.30;;;28.90;;
18140;SDS011;9196;49.194;12.526;2023-02-10T08:43:24;55.80;;;33.67;;
18140;SDS011;9196;49.194;12.526;2023-02-10T08:45:54;48.35;;;31.30;;
18140;SDS011;9196;49.194;12.526;2023-02-10T08:48:21;58.10;;;34.35;;
18140;SDS011;9196;49.194;12.526;2023-02-10T08:50:49;54.47;;;32.03;;
18140;SDS011;9196;49.194;12.526;2023-02-10T08:53:16;45.25;;;28.17;;
18140;SDS011;9196;49.194;12.526;2023-02-10T08:55:43;52.65;;;30.30;;
18140;SDS011;9196;49.194;12.526;2023-02-10T08:58:09;51.65;;;31.63;;
18140;SDS011;9196;49.194;12.526;2023-02-10T09:00:36;51.25;;;31.70;;
18140;SDS011;9196;49.194;12.526;2023-02-10T09:03:05;51.55;;;31.23;;
18140;SDS011;9196;49.194;12.526;2023-02-10T09:05:34;54.60;;;31.25;;
18140;SDS011;9196;49.194;12.526;2023-02-10T09:08:01;64.95;;;33.33;;
18140;SDS011;9196;49.194;12.526;2023-02-10T09:10:29;53.10;;;29.55;;
18140;SDS011;9196;49.194;12.526;2023-02-10T09:12:56;52.95;;;27.65;;
18140;SDS011;9196;49.194;12.526;2023-02-10T09:15:22;45.13;;;26.90;;
18140;SDS011;9196;49.194;12.526;2023-02-10T09:17:49;43.65;;;24.65;;
18140;SDS011;9196;49.194;12.526;2023-02-10T09:20:17;50.78;;;28.10;;
18140;SDS011;9196;49.194;12.526;2023-02-10T09:22:44;52.88;;;28.90;;
18140;SDS011;9196;49.194;12.526;2023-02-10T09:25:12;50.28;;;27.75;;
18140;SDS011;9196;49.194;12.526;2023-02-10T09:27:39;51.13;;;30.05;;
18140;SDS011;9196;49.194;12.526;2023-02-10T09:30:06;51.35;;;27.48;;
18140;SDS011;9196;49.194;12.526;2023-02-10T09:32:34;40.83;;;27.92;;
18140;SDS011;9196;49.194;12.526;2023-02-10T09:35:00;38.10;;;24.40;;
18140;SDS011;9196;49.194;12.526;2023-02-10T09:37:29;49.85;;;28.08;;
18140;SDS011;9196;49.194;12.526;2023-02-10T09:39:55;44.50;;;25.80;;
18140;SDS011;9196;49.194;12.526;2023-02-10T09:42:24;45.97;;;26.48;;
18140;SDS011;9196;49.194;12.526;2023-02-10T09:45:02;40.10;;;24.95;;
18140;SDS011;9196;49.194;12.526;2023-02-10T09:47:36;37.63;;;25.10;;
18140;SDS011;9196;49.194;12.526;2023-02-10T09:50:14;41.25;;;24.23;;
18140;SDS011;9196;49.194;12.526;2023-02-10T09:52:56;44.33;;;26.70;;
18140;SDS011;9196;49.194;12.526;2023-02-10T09:55:34;35.13;;;24.85;;
18140;SDS011;9196;49.194;12.526;2023-02-10T09:58:05;39.90;;;24.02;;
18140;SDS011;9196;49.194;12.526;2023-02-10T10:00:45;49.97;;;28.10;;
18140;SDS011;9196;49.194;12.526;2023-02-10T10:03:15;61.45;;;30.13;;
18140;SDS011;9196;49.194;12.526;2023-02-10T10:05:46;50.28;;;28.90;;
18140;SDS011;9196;49.194;12.526;2023-02-10T10:08:25;46.00;;;29.17;;
18140;SDS011;9196;49.194;12.526;2023-02-10T10:10:55;41.28;;;27.05;;
18140;SDS011;9196;49.194;12.526;2023-02-10T10:13:27;44.08;;;26.65;;
18140;SDS011;9196;49.194;12.526;2023-02-10T10:16:08;46.25;;;26.88;;
18140;SDS011;9196;49.194;12.526;2023-02-10T10:18:45;49.25;;;29.48;;
18140;SDS011;9196;49.194;12.526;2023-02-10T10:21:22;57.90;;;28.55;;
18140;SDS011;9196;49.194;12.526;2023-02-10T10:23:58;50.78;;;30.73;;
18140;SDS011;9196;49.194;12.526;2023-02-10T10:26:40;57.50;;;30.90;;
18140;SDS011;9196;49.194;12.526;2023-02-10T10:29:19;49.80;;;30.30;;
18140;SDS011;9196;49.194;12.526;2023-02-10T10:31:49;47.95;;;29.40;;
18140;SDS011;9196;49.194;12.526;2023-02-10T10:34:24;52.90;;;31.40;;
18140;SDS011;9196;49.194;12.526;2023-02-10T10:36:56;43.75;;;28.08;;
18140;SDS011;9196;49.194;12.526;2023-02-10T10:39:28;55.80;;;34.97;;
18140;SDS011;9196;49.194;12.526;2023-02-10T10:42:00;52.08;;;31.35;;
18140;SDS011;9196;49.194;12.526;2023-02-10T10:44:31;57.15;;;34.45;;
18140;SDS011;9196;49.194;12.526;2023-02-10T10:47:02;52.63;;;30.70;;
18140;SDS011;9196;49.194;12.526;2023-02-10T10:49:33;79.88;;;41.00;;
18140;SDS011;9196;49.194;12.526;2023-02-10T10:52:01;50.67;;;32.30;;
18140;SDS011;9196;49.194;12.526;2023-02-10T10:54:29;53.42;;;31.25;;
18140;SDS011;9196;49.194;12.526;2023-02-10T10:56:58;58.03;;;32.92;;
18140;SDS011;9196;49.194;12.526;2023-02-10T10:59:29;48.65;;;28.95;;
18140;SDS011;9196;49.194;12.526;2023-02-10T11:02:09;47.75;;;28.88;;
18140;SDS011;9196;49.194;12.526;2023-02-10T11:04:37;47.78;;;30.17;;
18140;SDS011;9196;49.194;12.526;2023-02-10T11:07:08;59.50;;;34.70;;
18140;SDS011;9196;49.194;12.526;2023-02-10T11:09:38;46.97;;;28.50;;
18140;SDS011;9196;49.194;12.526;2023-02-10T11:12:11;49.08;;;29.63;;
18140;SDS011;9196;49.194;12.526;2023-02-10T11:14:44;46.80;;;28.50;;
18140;SDS011;9196;49.194;12.526;2023-02-10T11:17:20;41.40;;;27.38;;
18140;SDS011;9196;49.194;12.526;2023-02-10T11:19:55;48.05;;;29.77;;
18140;SDS011;9196;49.194;12.526;2023-02-10T11:22:24;42.67;;;28.65;;
18140;SDS011;9196;49.194;12.526;2023-02-10T11:24:53;45.10;;;30.67;;
18140;SDS011;9196;49.194;12.526;2023-02-10T11:27:21;48.55;;;31.60;;
18140;SDS011;9196;49.194;12.526;2023-02-10T11:29:49;52.05;;;29.50;;
18140;SDS011;9196;49.194;12.526;2023-02-10T11:32:18;45.13;;;28.05;;
18140;SDS011;9196;49.194;12.526;2023-02-10T11:34:46;42.38;;;28.60;;
18140;SDS011;9196;49.194;12.526;2023-02-10T11:37:19;45.38;;;28.75;;
18140;SDS011;9196;49.194;12.526;2023-02-10T11:39:49;48.67;;;29.00;;
18140;SDS011;9196;49.194;12.526;2023-02-10T11:42:20;40.97;;;27.92;;
18140;SDS011;9196;49.194;12.526;2023-02-10T11:44:53;45.45;;;28.05;;
18140;SDS011;9196;49.194;12.526;2023-02-10T11:47:22;51.53;;;28.60;;
18140;SDS011;9196;49.194;12.526;2023-02-10T11:49:51;53.22;;;30.90;;
18140;SDS011;9196;49.194;12.526;2023-02-10T11:52:18;42.00;;;27.83;;
18140;SDS011;9196;49.194;12.526;2023-02-10T11:54:48;46.70;;;31.45;;
18140;SDS011;9196;49.194;12.526;2023-02-10T12:00:23;44.78;;;28.02;;
18140;SDS011;9196;49.194;12.526;2023-02-10T12:03:03;46.72;;;28.08;;
18140;SDS011;9196;49.194;12.526;2023-02-10T12:05:41;51.67;;;33.00;;
18140;SDS011;9196;49.194;12.526;2023-02-10T12:08:15;47.27;;;28.73;;
18140;SDS011;9196;49.194;12.526;2023-02-10T12:10:53;40.97;;;27.33;;
18140;SDS011;9196;49.194;12.526;2023-02-10T12:13:28;43.03;;;29.92;;
18140;SDS011;9196;49.194;12.526;2023-02-10T12:16:05;41.20;;;27.90;;
18140;SDS011;9196;49.194;12.526;2023-02-10T12:18:48;42.73;;;27.83;;
18140;SDS011;9196;49.194;12.526;2023-02-10T12:21:28;39.70;;;28.00;;
18140;SDS011;9196;49.194;12.526;2023-02-10T12:24:38;43.20;;;28.70;;
18140;SDS011;9196;49.194;12.526;2023-02-10T12:27:21;41.83;;;27.37;;
18140;SDS011;9196;49.194;12.526;2023-02-10T12:29:57;44.00;;;30.00;;
18140;SDS011;9196;49.194;12.526;2023-02-10T12:32:33;44.60;;;29.03;;
18140;SDS011;9196;49.194;12.526;2023-02-10T12:35:12;45.23;;;30.30;;
18140;SDS011;9196;49.194;12.526;2023-02-10T12:37:51;39.53;;;28.67;;
18140;SDS011;9196;49.194;12.526;2023-02-10T12:43:20;38.67;;;26.17;;
18140;SDS011;9196;49.194;12.526;2023-02-10T12:46:12;36.13;;;27.43;;
18140;SDS011;9196;49.194;12.526;2023-02-10T12:48:50;38.47;;;27.50;;
18140;SDS011;9196;49.194;12.526;2023-02-10T12:51:33;46.77;;;29.20;;
18140;SDS011;9196;49.194;12.526;2023-02-10T12:54:11;43.13;;;29.07;;
18140;SDS011;9196;49.194;12.526;2023-02-10T12:56:41;39.13;;;27.70;;
18140;SDS011;9196;49.194;12.526;2023-02-10T12:59:13;32.83;;;25.03;;
18140;SDS011;9196;49.194;12.526;2023-02-10T13:01:45;31.30;;;22.73;;
18140;SDS011;9196;49.194;12.526;2023-02-10T13:04:18;34.17;;;25.37;;
18140;SDS011;9196;49.194;12.526;2023-02-10T13:06:50;37.17;;;25.50;;
18140;SDS011;9196;49.194;12.526;2023-02-10T13:09:23;35.50;;;24.83;;
18140;SDS011;9196;49.194;12.526;2023-02-10T13:11:59;34.83;;;25.43;;
18140;SDS011;9196;49.194;12.526;2023-02-10T13:14:31;32.47;;;24.73;;
18140;SDS011;9196;49.194;12.526;2023-02-10T13:17:01;30.50;;;22.97;;
18140;SDS011;9196;49.194;12.526;2023-02-10T13:19:31;33.20;;;24.10;;
18140;SDS011;9196;49.194;12.526;2023-02-10T13:22:07;32.93;;;23.40;;
18140;SDS011;9196;49.194;12.526;2023-02-10T13:24:39;32.00;;;23.60;;
18140;SDS011;9196;49.194;12.526;2023-02-10T13:27:13;29.90;;;23.60;;
18140;SDS011;9196;49.194;12.526;2023-02-10T13:29:50;29.00;;;20.90;;
18140;SDS011;9196;49.194;12.526;2023-02-10T13:32:31;28.87;;;20.90;;
18140;SDS011;9196;49.194;12.526;2023-02-10T13:35:07;29.90;;;22.50;;
18140;SDS011;9196;49.194;12.526;2023-02-10T13:37:40;33.10;;;23.17;;
18140;SDS011;9196;49.194;12.526;2023-02-10T13:40:13;29.73;;;20.43;;
18140;SDS011;9196;49.194;12.526;2023-02-10T13:42:47;29.53;;;21.33;;
18140;SDS011;9196;49.194;12.526;2023-02-10T13:45:16;28.47;;;21.20;;
18140;SDS011;9196;49.194;12.526;2023-02-10T13:47:48;31.20;;;22.60;;
18140;SDS011;9196;49.194;12.526;2023-02-10T13:50:19;30.40;;;22.07;;
18140;SDS011;9196;49.194;12.526;2023-02-10T13:52:49;30.50;;;20.40;;
18140;SDS011;9196;49.194;12.526;2023-02-10T13:55:27;27.73;;;19.97;;
18140;SDS011;9196;49.194;12.526;2023-02-10T14:00:53;27.90;;;21.00;;
18140;SDS011;9196;49.194;12.526;2023-02-10T14:03:23;27.47;;;20.80;;
18140;SDS011;9196;49.194;12.526;2023-02-10T14:05:51;25.93;;;19.50;;
18140;SDS011;9196;49.194;12.526;2023-02-10T14:08:28;26.67;;;19.73;;
18140;SDS011;9196;49.194;12.526;2023-02-10T14:10:58;25.97;;;19.80;;
18140;SDS011;9196;49.194;12.526;2023-02-10T14:13:27;29.30;;;20.23;;
18140;SDS011;9196;49.194;12.526;2023-02-10T14:16:00;30.90;;;21.77;;
18140;SDS011;9196;49.194;12.526;2023-02-10T14:18:30;27.73;;;21.57;;
18140;SDS011;9196;49.194;12.526;2023-02-10T14:20:59;28.80;;;21.77;;
18140;SDS011;9196;49.194;12.526;2023-02-10T14:23:29;34.80;;;23.57;;
18140;SDS011;9196;49.194;12.526;2023-02-10T14:25:58;32.20;;;22.13;;
18140;SDS011;9196;49.194;12.526;2023-02-10T14:28:28;28.43;;;21.20;;
18140;SDS011;9196;49.194;12.526;2023-02-10T14:31:00;27.37;;;20.40;;
18140;SDS011;9196;49.194;12.526;2023-02-10T14:33:31;29.93;;;20.97;;
18140;SDS011;9196;49.194;12.526;2023-02-10T14:36:00;31.70;;;22.13;;
18140;SDS011;9196;49.194;12.526;2023-02-10T14:38:29;33.13;;;21.50;;
18140;SDS011;9196;49.194;12.526;2023-02-10T14:40:59;29.47;;;21.60;;
18140;SDS011;9196;49.194;12.526;2023-02-10T14:43:28;32.97;;;21.77;;
18140;SDS011;9196;49.194;12.526;2023-02-10T14:45:57;31.33;;;23.07;;
18140;SDS011;9196;49.194;12.526;2023-02-10T14:48:26;34.47;;;23.27;;
18140;SDS011;9196;49.194;12.526;2023-02-10T14:50:59;38.53;;;27.33;;